sensor_id;sensor_type;location;lat;lon;timestamp;pressure;altitude;pressure_sealevel;temperature;humidity
44697;BME280;57264;47.480;19.354;2024-03-25T00:01:38;97992.25;;;1.55;94.88
44697;BME280;57264;47.480;19.354;2024-03-25T00:04:03;98000.84;;;1.51;94.80
44697;BME280;57264;47.480;19.354;2024-03-25T00:06:29;97996.66;;;1.47;94.44
44697;BME280;57264;47.480;19.354;2024-03-25T00:08:58;97998.38;;;1.45;94.68
44697;BME280;57264;47.480;19.354;2024-03-25T00:11:24;97991.69;;;1.36;94.57
44697;BME280;57264;47.480;19.354;2024-03-25T00:13:49;97990.16;;;1.26;94.54
44697;BME280;57264;47.480;19.354;2024-03-25T00:16:14;97987.78;;;1.15;94.35
44697;BME280;57264;47.480;19.354;2024-03-25T00:18:40;97993.81;;;1.10;94.56
44697;BME280;57264;47.480;19.354;2024-03-25T00:21:05;97987.19;;;1.00;94.41
44697;BME280;57264;47.480;19.354;2024-03-25T00:23:30;97990.47;;;1.08;94.44
44697;BME280;57264;47.480;19.354;2024-03-25T00:25:56;97992.97;;;1.09;94.52
44697;BME280;57264;47.480;19.354;2024-03-25T00:28:21;97992.94;;;1.12;94.43
44697;BME280;57264;47.480;19.354;2024-03-25T00:30:47;97988.69;;;1.11;94.21
44697;BME280;57264;47.480;19.354;2024-03-25T00:33:12;97985.22;;;1.15;94.13
44697;BME280;57264;47.480;19.354;2024-03-25T00:35:38;97980.03;;;1.20;94.27
44697;BME280;57264;47.480;19.354;2024-03-25T00:38:03;97974.06;;;1.19;94.24
44697;BME280;57264;47.480;19.354;2024-03-25T00:40:29;97973.25;;;1.19;93.67
44697;BME280;57264;47.480;19.354;2024-03-25T00:42:54;97968.00;;;1.25;93.96
44697;BME280;57264;47.480;19.354;2024-03-25T00:45:20;97966.28;;;1.26;93.74
44697;BME280;57264;47.480;19.354;2024-03-25T00:47:45;97970.59;;;1.23;93.77
44697;BME280;57264;47.480;19.354;2024-03-25T00:50:11;97966.28;;;1.27;93.73
44697;BME280;57264;47.480;19.354;2024-03-25T00:52:36;97961.09;;;1.30;93.31
44697;BME280;57264;47.480;19.354;2024-03-25T00:55:02;97953.50;;;1.27;93.14
44697;BME280;57264;47.480;19.354;2024-03-25T00:57:27;97960.03;;;1.42;92.97
44697;BME280;57264;47.480;19.354;2024-03-25T00:59:54;97967.63;;;1.46;92.66
44697;BME280;57264;47.480;19.354;2024-03-25T01:04:48;97973.75;;;1.38;92.33
44697;BME280;57264;47.480;19.354;2024-03-25T01:07:13;97972.91;;;1.37;92.15
44697;BME280;57264;47.480;19.354;2024-03-25T01:09:38;97971.28;;;1.33;92.42
44697;BME280;57264;47.480;19.354;2024-03-25T01:12:04;97973.03;;;1.31;92.28
44697;BME280;57264;47.480;19.354;2024-03-25T01:14:29;97974.69;;;1.34;92.20
44697;BME280;57264;47.480;19.354;2024-03-25T01:16:55;97975.53;;;1.34;91.92
44697;BME280;57264;47.480;19.354;2024-03-25T01:19:21;97971.31;;;1.30;91.75
44697;BME280;57264;47.480;19.354;2024-03-25T01:21:47;97975.72;;;1.23;91.70
44697;BME280;57264;47.480;19.354;2024-03-25T01:24:12;97967.38;;;1.12;91.29
44697;BME280;57264;47.480;19.354;2024-03-25T01:26:37;97969.22;;;1.04;91.70
44697;BME280;57264;47.480;19.354;2024-03-25T01:29:03;97964.09;;;1.04;91.76
44697;BME280;57264;47.480;19.354;2024-03-25T01:31:28;97966.72;;;0.98;91.95
44697;BME280;57264;47.480;19.354;2024-03-25T01:33:53;97959.19;;;0.90;92.00
44697;BME280;57264;47.480;19.354;2024-03-25T01:36:19;97970.25;;;0.91;92.04
44697;BME280;57264;47.480;19.354;2024-03-25T01:38:44;97972.03;;;0.87;91.93
44697;BME280;57264;47.480;19.354;2024-03-25T01:41:10;97972.97;;;0.79;92.21
44697;BME280;57264;47.480;19.354;2024-03-25T01:43:36;97963.66;;;0.76;92.08
44697;BME280;57264;47.480;19.354;2024-03-25T01:46:02;97974.81;;;0.72;91.95
44697;BME280;57264;47.480;19.354;2024-03-25T01:48:27;97967.09;;;0.73;92.43
44697;BME280;57264;47.480;19.354;2024-03-25T01:50:53;97967.16;;;0.69;92.41
44697;BME280;57264;47.480;19.354;2024-03-25T01:53:18;97967.03;;;0.78;92.28
44697;BME280;57264;47.480;19.354;2024-03-25T01:55:44;97965.13;;;0.91;92.96
44697;BME280;57264;47.480;19.354;2024-03-25T01:58:09;97959.00;;;1.01;92.26
44697;BME280;57264;47.480;19.354;2024-03-25T02:00:35;97960.66;;;1.05;92.34
44697;BME280;57264;47.480;19.354;2024-03-25T02:03:01;97965.78;;;1.05;92.34
44697;BME280;57264;47.480;19.354;2024-03-25T02:05:27;97966.59;;;1.07;91.87
44697;BME280;57264;47.480;19.354;2024-03-25T02:07:53;97973.44;;;1.05;91.74
44697;BME280;57264;47.480;19.354;2024-03-25T02:10:19;97966.63;;;1.06;91.79
44697;BME280;57264;47.480;19.354;2024-03-25T02:12:46;97958.00;;;1.11;91.77
44697;BME280;57264;47.480;19.354;2024-03-25T02:15:12;97959.69;;;1.11;91.72
44697;BME280;57264;47.480;19.354;2024-03-25T02:17:41;97962.28;;;1.09;91.88
44697;BME280;57264;47.480;19.354;2024-03-25T02:20:06;97971.59;;;1.13;91.48
44697;BME280;57264;47.480;19.354;2024-03-25T02:22:34;97966.41;;;1.18;91.62
44697;BME280;57264;47.480;19.354;2024-03-25T02:25:00;97965.50;;;1.23;91.41
44697;BME280;57264;47.480;19.354;2024-03-25T02:27:26;97972.13;;;1.34;91.03
44697;BME280;57264;47.480;19.354;2024-03-25T02:30:01;97971.19;;;1.39;90.90
44697;BME280;57264;47.480;19.354;2024-03-25T02:32:27;97977.03;;;1.46;90.33
44697;BME280;57264;47.480;19.354;2024-03-25T02:34:54;97965.72;;;1.58;90.03
44697;BME280;57264;47.480;19.354;2024-03-25T02:37:19;97969.00;;;1.67;89.41
44697;BME280;57264;47.480;19.354;2024-03-25T02:39:45;97962.28;;;1.60;89.00
44697;BME280;57264;47.480;19.354;2024-03-25T02:42:10;97965.03;;;1.51;88.92
44697;BME280;57264;47.480;19.354;2024-03-25T02:44:36;97973.63;;;1.45;88.95
44697;BME280;57264;47.480;19.354;2024-03-25T02:47:01;97967.75;;;1.40;89.17
44697;BME280;57264;47.480;19.354;2024-03-25T02:49:27;97972.88;;;1.40;89.14
44697;BME280;57264;47.480;19.354;2024-03-25T02:51:53;97972.97;;;1.34;88.91
44697;BME280;57264;47.480;19.354;2024-03-25T02:54:18;97973.97;;;1.27;89.41
44697;BME280;57264;47.480;19.354;2024-03-25T02:56:44;97972.38;;;1.18;89.46
44697;BME280;57264;47.480;19.354;2024-03-25T02:59:09;97972.47;;;1.12;89.62
44697;BME280;57264;47.480;19.354;2024-03-25T03:01:35;97974.25;;;1.09;89.31
44697;BME280;57264;47.480;19.354;2024-03-25T03:04:00;97979.41;;;1.06;89.47
44697;BME280;57264;47.480;19.354;2024-03-25T03:06:25;97970.09;;;1.02;89.62
44697;BME280;57264;47.480;19.354;2024-03-25T03:08:51;97969.13;;;1.09;89.88
44697;BME280;57264;47.480;19.354;2024-03-25T03:11:16;97968.25;;;1.11;89.68
44697;BME280;57264;47.480;19.354;2024-03-25T03:13:41;97974.31;;;1.04;89.59
44697;BME280;57264;47.480;19.354;2024-03-25T03:16:07;97975.16;;;1.05;89.42
44697;BME280;57264;47.480;19.354;2024-03-25T03:18:32;97975.28;;;0.97;89.49
44697;BME280;57264;47.480;19.354;2024-03-25T03:20:58;97979.50;;;1.00;89.82
44697;BME280;57264;47.480;19.354;2024-03-25T03:23:23;97984.53;;;1.04;90.00
44697;BME280;57264;47.480;19.354;2024-03-25T03:25:49;97980.47;;;0.92;89.83
44697;BME280;57264;47.480;19.354;2024-03-25T03:28:14;97986.63;;;0.78;89.61
44697;BME280;57264;47.480;19.354;2024-03-25T03:30:42;97983.38;;;0.66;89.53
44697;BME280;57264;47.480;19.354;2024-03-25T03:33:08;97983.28;;;0.76;90.15
44697;BME280;57264;47.480;19.354;2024-03-25T03:35:34;97987.28;;;0.90;89.94
44697;BME280;57264;47.480;19.354;2024-03-25T03:37:59;97992.09;;;1.10;89.97
44697;BME280;57264;47.480;19.354;2024-03-25T03:40:24;97996.22;;;1.20;89.70
44697;BME280;57264;47.480;19.354;2024-03-25T03:42:50;97991.78;;;1.30;89.54
44697;BME280;57264;47.480;19.354;2024-03-25T03:45:15;97995.22;;;1.29;89.37
44697;BME280;57264;47.480;19.354;2024-03-25T03:47:40;97997.69;;;1.34;89.36
44697;BME280;57264;47.480;19.354;2024-03-25T03:50:06;98001.97;;;1.35;89.10
44697;BME280;57264;47.480;19.354;2024-03-25T03:52:32;98005.25;;;1.41;89.23
44697;BME280;57264;47.480;19.354;2024-03-25T03:54:58;98005.09;;;1.52;89.01
44697;BME280;57264;47.480;19.354;2024-03-25T03:57:23;98016.88;;;1.61;88.69
44697;BME280;57264;47.480;19.354;2024-03-25T03:59:48;98008.28;;;1.65;88.51
44697;BME280;57264;47.480;19.354;2024-03-25T04:02:14;98010.66;;;1.74;88.42
44697;BME280;57264;47.480;19.354;2024-03-25T04:04:42;98011.41;;;1.81;88.26
44697;BME280;57264;47.480;19.354;2024-03-25T04:07:07;98017.28;;;1.86;88.07
44697;BME280;57264;47.480;19.354;2024-03-25T04:09:33;98014.66;;;1.90;88.05
44697;BME280;57264;47.480;19.354;2024-03-25T04:11:58;98021.47;;;1.91;88.21
44697;BME280;57264;47.480;19.354;2024-03-25T04:14:26;98026.50;;;1.96;88.08
44697;BME280;57264;47.480;19.354;2024-03-25T04:16:51;98017.78;;;2.06;87.89
44697;BME280;57264;47.480;19.354;2024-03-25T04:19:18;98026.16;;;2.13;87.66
44697;BME280;57264;47.480;19.354;2024-03-25T04:21:44;98023.56;;;2.16;87.63
44697;BME280;57264;47.480;19.354;2024-03-25T04:24:09;98021.03;;;2.14;87.84
44697;BME280;57264;47.480;19.354;2024-03-25T04:26:34;98021.94;;;2.12;88.07
44697;BME280;57264;47.480;19.354;2024-03-25T04:29:00;98032.22;;;2.10;88.54
44697;BME280;57264;47.480;19.354;2024-03-25T04:31:25;98027.06;;;2.12;88.28
44697;BME280;57264;47.480;19.354;2024-03-25T04:33:50;98028.72;;;2.14;88.13
44697;BME280;57264;47.480;19.354;2024-03-25T04:36:16;98030.31;;;2.20;87.97
44697;BME280;57264;47.480;19.354;2024-03-25T04:38:41;98028.34;;;2.33;87.72
44697;BME280;57264;47.480;19.354;2024-03-25T04:41:06;98028.97;;;2.44;87.02
44697;BME280;57264;47.480;19.354;2024-03-25T04:43:32;98034.75;;;2.55;85.74
44697;BME280;57264;47.480;19.354;2024-03-25T04:46:00;98031.19;;;2.62;85.62
44697;BME280;57264;47.480;19.354;2024-03-25T04:48:25;98030.19;;;2.69;85.21
44697;BME280;57264;47.480;19.354;2024-03-25T04:50:51;98037.66;;;2.79;84.14
44697;BME280;57264;47.480;19.354;2024-03-25T04:53:16;98030.78;;;2.81;84.60
44697;BME280;57264;47.480;19.354;2024-03-25T04:55:41;98032.41;;;2.85;84.31
44697;BME280;57264;47.480;19.354;2024-03-25T04:58:07;98026.31;;;2.89;84.61
44697;BME280;57264;47.480;19.354;2024-03-25T05:00:32;98037.28;;;2.97;84.43
44697;BME280;57264;47.480;19.354;2024-03-25T05:02:57;98033.69;;;3.04;84.09
44697;BME280;57264;47.480;19.354;2024-03-25T05:05:23;98037.84;;;3.10;83.95
44697;BME280;57264;47.480;19.354;2024-03-25T05:07:49;98033.50;;;3.13;84.16
44697;BME280;57264;47.480;19.354;2024-03-25T05:10:15;98033.44;;;3.15;84.01
44697;BME280;57264;47.480;19.354;2024-03-25T05:12:40;98044.50;;;3.18;84.25
44697;BME280;57264;47.480;19.354;2024-03-25T05:15:05;98046.22;;;3.16;84.41
44697;BME280;57264;47.480;19.354;2024-03-25T05:17:31;98039.34;;;3.18;84.10
44697;BME280;57264;47.480;19.354;2024-03-25T05:19:56;98050.47;;;3.19;84.02
44697;BME280;57264;47.480;19.354;2024-03-25T05:22:22;98050.50;;;3.17;83.68
44697;BME280;57264;47.480;19.354;2024-03-25T05:24:47;98052.25;;;3.15;83.69
44697;BME280;57264;47.480;19.354;2024-03-25T05:27:12;98057.38;;;3.15;83.96
44697;BME280;57264;47.480;19.354;2024-03-25T05:29:38;98053.06;;;3.17;83.97
44697;BME280;57264;47.480;19.354;2024-03-25T05:32:03;98057.31;;;3.18;84.47
44697;BME280;57264;47.480;19.354;2024-03-25T05:34:29;98060.66;;;3.22;84.41
44697;BME280;57264;47.480;19.354;2024-03-25T05:36:54;98064.03;;;3.24;84.10
44697;BME280;57264;47.480;19.354;2024-03-25T05:39:20;98071.53;;;3.32;83.90
44697;BME280;57264;47.480;19.354;2024-03-25T05:41:46;98066.25;;;3.39;83.63
44697;BME280;57264;47.480;19.354;2024-03-25T05:44:11;98066.13;;;3.44;82.94
44697;BME280;57264;47.480;19.354;2024-03-25T05:46:37;98070.31;;;3.48;82.45
44697;BME280;57264;47.480;19.354;2024-03-25T05:49:03;98067.66;;;3.53;82.89
44697;BME280;57264;47.480;19.354;2024-03-25T05:51:29;98070.09;;;3.57;82.29
44697;BME280;57264;47.480;19.354;2024-03-25T05:53:54;98070.78;;;3.64;82.26
44697;BME280;57264;47.480;19.354;2024-03-25T05:56:20;98071.50;;;3.70;81.99
44697;BME280;57264;47.480;19.354;2024-03-25T05:58:45;98075.75;;;3.72;82.11
44697;BME280;57264;47.480;19.354;2024-03-25T06:01:10;98085.16;;;3.73;82.23
44697;BME280;57264;47.480;19.354;2024-03-25T06:03:37;98077.44;;;3.73;81.79
44697;BME280;57264;47.480;19.354;2024-03-25T06:06:03;98072.84;;;3.85;81.22
44697;BME280;57264;47.480;19.354;2024-03-25T06:08:28;98077.50;;;4.04;80.80
44697;BME280;57264;47.480;19.354;2024-03-25T06:10:54;98071.09;;;4.51;79.70
44697;BME280;57264;47.480;19.354;2024-03-25T06:13:20;98081.13;;;4.91;78.39
44697;BME280;57264;47.480;19.354;2024-03-25T06:15:45;98076.13;;;5.15;77.09
44697;BME280;57264;47.480;19.354;2024-03-25T06:18:11;98080.03;;;5.28;76.50
44697;BME280;57264;47.480;19.354;2024-03-25T06:20:36;98085.81;;;5.63;75.56
44697;BME280;57264;47.480;19.354;2024-03-25T06:23:01;98086.53;;;6.20;73.85
44697;BME280;57264;47.480;19.354;2024-03-25T06:25:27;98078.78;;;6.70;71.90
44697;BME280;57264;47.480;19.354;2024-03-25T06:27:53;98093.97;;;6.54;71.03
44697;BME280;57264;47.480;19.354;2024-03-25T06:30:18;98090.75;;;6.47;72.38
44697;BME280;57264;47.480;19.354;2024-03-25T06:33:02;98084.16;;;6.63;71.00
44697;BME280;57264;47.480;19.354;2024-03-25T06:35:46;98094.88;;;6.76;71.05
44697;BME280;57264;47.480;19.354;2024-03-25T06:38:12;98092.44;;;6.48;71.85
44697;BME280;57264;47.480;19.354;2024-03-25T06:40:37;98094.00;;;6.52;71.74
44697;BME280;57264;47.480;19.354;2024-03-25T06:43:03;98093.06;;;6.55;71.28
44697;BME280;57264;47.480;19.354;2024-03-25T06:45:28;98090.00;;;7.37;69.90
44697;BME280;57264;47.480;19.354;2024-03-25T06:47:54;98086.81;;;7.95;66.72
44697;BME280;57264;47.480;19.354;2024-03-25T06:50:20;98092.38;;;8.49;65.25
44697;BME280;57264;47.480;19.354;2024-03-25T06:52:45;98082.97;;;8.85;64.01
44697;BME280;57264;47.480;19.354;2024-03-25T06:55:10;98085.09;;;8.96;63.53
44697;BME280;57264;47.480;19.354;2024-03-25T06:57:36;98095.66;;;8.92;63.18
44697;BME280;57264;47.480;19.354;2024-03-25T07:00:01;98093.34;;;8.85;63.55
44697;BME280;57264;47.480;19.354;2024-03-25T07:02:31;98098.53;;;9.04;62.72
44697;BME280;57264;47.480;19.354;2024-03-25T07:04:57;98108.56;;;9.31;62.36
44697;BME280;57264;47.480;19.354;2024-03-25T07:07:22;98099.91;;;9.49;61.66
44697;BME280;57264;47.480;19.354;2024-03-25T07:09:49;98101.88;;;9.44;60.70
44697;BME280;57264;47.480;19.354;2024-03-25T07:12:14;98101.28;;;9.39;61.85
44697;BME280;57264;47.480;19.354;2024-03-25T07:14:39;98099.44;;;9.41;61.43
44697;BME280;57264;47.480;19.354;2024-03-25T07:17:05;98100.91;;;8.90;61.05
44697;BME280;57264;47.480;19.354;2024-03-25T07:19:30;98109.03;;;9.01;62.18
44697;BME280;57264;47.480;19.354;2024-03-25T07:21:56;98112.97;;;8.91;62.63
44697;BME280;57264;47.480;19.354;2024-03-25T07:24:21;98104.94;;;8.77;62.66
44697;BME280;57264;47.480;19.354;2024-03-25T07:26:46;98119.41;;;8.62;62.76
44697;BME280;57264;47.480;19.354;2024-03-25T07:29:12;98105.19;;;8.52;63.05
44697;BME280;57264;47.480;19.354;2024-03-25T07:31:37;98114.84;;;8.26;63.58
44697;BME280;57264;47.480;19.354;2024-03-25T07:34:02;98115.00;;;7.81;63.83
44697;BME280;57264;47.480;19.354;2024-03-25T07:36:28;98120.50;;;7.72;65.18
44697;BME280;57264;47.480;19.354;2024-03-25T07:38:58;98122.56;;;7.85;64.83
44697;BME280;57264;47.480;19.354;2024-03-25T07:41:23;98129.09;;;7.94;63.38
44697;BME280;57264;47.480;19.354;2024-03-25T07:43:49;98133.31;;;8.39;62.81
44697;BME280;57264;47.480;19.354;2024-03-25T07:46:14;98127.25;;;8.60;60.44
44697;BME280;57264;47.480;19.354;2024-03-25T07:48:39;98128.38;;;8.74;61.28
44697;BME280;57264;47.480;19.354;2024-03-25T07:53:30;98129.81;;;8.81;60.00
44697;BME280;57264;47.480;19.354;2024-03-25T07:55:55;98129.69;;;8.84;59.38
44697;BME280;57264;47.480;19.354;2024-03-25T07:58:21;98127.84;;;8.86;60.05
44697;BME280;57264;47.480;19.354;2024-03-25T08:00:46;98143.53;;;8.83;59.17
44697;BME280;57264;47.480;19.354;2024-03-25T08:03:11;98126.34;;;8.41;59.81
44697;BME280;57264;47.480;19.354;2024-03-25T08:05:37;98128.94;;;8.41;59.88
44697;BME280;57264;47.480;19.354;2024-03-25T08:08:02;98131.00;;;8.31;60.56
44697;BME280;57264;47.480;19.354;2024-03-25T08:10:28;98135.94;;;8.17;61.40
44697;BME280;57264;47.480;19.354;2024-03-25T08:12:54;98136.34;;;8.28;61.52
44697;BME280;57264;47.480;19.354;2024-03-25T08:15:19;98127.25;;;8.40;62.17
44697;BME280;57264;47.480;19.354;2024-03-25T08:17:45;98125.22;;;8.47;61.37
44697;BME280;57264;47.480;19.354;2024-03-25T08:20:10;98134.28;;;8.36;60.29
44697;BME280;57264;47.480;19.354;2024-03-25T08:22:36;98137.78;;;8.35;60.10
44697;BME280;57264;47.480;19.354;2024-03-25T08:25:01;98123.19;;;8.74;59.41
44697;BME280;57264;47.480;19.354;2024-03-25T08:27:27;98137.19;;;8.70;58.66
44697;BME280;57264;47.480;19.354;2024-03-25T08:29:52;98130.09;;;8.54;58.02
44697;BME280;57264;47.480;19.354;2024-03-25T08:32:19;98129.31;;;8.52;59.14
44697;BME280;57264;47.480;19.354;2024-03-25T08:34:44;98134.78;;;8.85;59.24
44697;BME280;57264;47.480;19.354;2024-03-25T08:37:10;98128.84;;;9.02;57.59
44697;BME280;57264;47.480;19.354;2024-03-25T08:39:35;98120.31;;;9.38;56.43
44697;BME280;57264;47.480;19.354;2024-03-25T08:42:01;98123.47;;;9.45;57.25
44697;BME280;57264;47.480;19.354;2024-03-25T08:44:26;98141.13;;;9.36;55.81
44697;BME280;57264;47.480;19.354;2024-03-25T08:46:51;98131.69;;;9.35;56.50
44697;BME280;57264;47.480;19.354;2024-03-25T08:49:16;98137.53;;;9.01;57.09
44697;BME280;57264;47.480;19.354;2024-03-25T08:51:42;98145.09;;;8.87;56.55
44697;BME280;57264;47.480;19.354;2024-03-25T08:54:07;98131.84;;;8.93;57.40
44697;BME280;57264;47.480;19.354;2024-03-25T08:56:32;98130.25;;;9.09;57.24
44697;BME280;57264;47.480;19.354;2024-03-25T08:58:58;98133.63;;;9.11;56.98
44697;BME280;57264;47.480;19.354;2024-03-25T09:01:23;98133.13;;;9.03;56.04
44697;BME280;57264;47.480;19.354;2024-03-25T09:03:49;98131.94;;;9.29;57.44
44697;BME280;57264;47.480;19.354;2024-03-25T09:06:15;98131.09;;;9.67;55.29
44697;BME280;57264;47.480;19.354;2024-03-25T09:08:41;98132.44;;;9.93;53.22
44697;BME280;57264;47.480;19.354;2024-03-25T09:11:25;98134.88;;;10.13;55.28
44697;BME280;57264;47.480;19.354;2024-03-25T09:13:51;98140.97;;;10.31;53.14
44697;BME280;57264;47.480;19.354;2024-03-25T09:16:17;98133.31;;;10.28;51.64
44697;BME280;57264;47.480;19.354;2024-03-25T09:18:42;98137.28;;;10.18;51.48
44697;BME280;57264;47.480;19.354;2024-03-25T09:21:08;98126.50;;;10.08;52.55
44697;BME280;57264;47.480;19.354;2024-03-25T09:23:33;98136.91;;;10.25;52.08
44697;BME280;57264;47.480;19.354;2024-03-25T09:25:59;98137.09;;;10.21;51.71
44697;BME280;57264;47.480;19.354;2024-03-25T09:28:24;98129.69;;;10.13;50.18
44697;BME280;57264;47.480;19.354;2024-03-25T09:30:50;98141.91;;;10.11;50.47
44697;BME280;57264;47.480;19.354;2024-03-25T09:33:16;98131.72;;;10.25;50.95
44697;BME280;57264;47.480;19.354;2024-03-25T09:35:41;98118.78;;;10.24;51.93
44697;BME280;57264;47.480;19.354;2024-03-25T09:38:06;98134.56;;;10.38;51.35
44697;BME280;57264;47.480;19.354;2024-03-25T09:40:32;98135.78;;;10.31;50.65
44697;BME280;57264;47.480;19.354;2024-03-25T09:43:01;98129.72;;;10.48;50.11
44697;BME280;57264;47.480;19.354;2024-03-25T09:45:27;98127.53;;;10.40;49.73
44697;BME280;57264;47.480;19.354;2024-03-25T09:47:53;98139.56;;;10.06;51.35
44697;BME280;57264;47.480;19.354;2024-03-25T09:50:19;98142.44;;;9.64;55.53
44697;BME280;57264;47.480;19.354;2024-03-25T09:52:49;98165.13;;;9.02;57.73
44697;BME280;57264;47.480;19.354;2024-03-25T09:55:14;98160.59;;;8.48;61.61
44697;BME280;57264;47.480;19.354;2024-03-25T09:57:39;98162.41;;;8.24;63.10
44697;BME280;57264;47.480;19.354;2024-03-25T10:00:07;98151.88;;;8.06;64.47
44697;BME280;57264;47.480;19.354;2024-03-25T10:02:33;98157.66;;;8.13;67.71
44697;BME280;57264;47.480;19.354;2024-03-25T10:04:59;98157.41;;;8.41;69.15
44697;BME280;57264;47.480;19.354;2024-03-25T10:07:25;98142.25;;;8.73;66.56
44697;BME280;57264;47.480;19.354;2024-03-25T10:09:53;98130.88;;;8.96;63.80
44697;BME280;57264;47.480;19.354;2024-03-25T10:12:18;98132.66;;;9.33;61.73
44697;BME280;57264;47.480;19.354;2024-03-25T10:14:45;98127.72;;;9.65;60.66
44697;BME280;57264;47.480;19.354;2024-03-25T10:17:10;98123.44;;;10.17;58.07
44697;BME280;57264;47.480;19.354;2024-03-25T10:19:36;98116.34;;;10.55;54.96
44697;BME280;57264;47.480;19.354;2024-03-25T10:22:05;98125.13;;;10.53;52.40
44697;BME280;57264;47.480;19.354;2024-03-25T10:24:40;98123.78;;;10.28;53.05
44697;BME280;57264;47.480;19.354;2024-03-25T10:27:09;98131.84;;;10.22;53.78
44697;BME280;57264;47.480;19.354;2024-03-25T10:29:34;98140.88;;;9.79;52.78
44697;BME280;57264;47.480;19.354;2024-03-25T10:32:00;98130.69;;;9.38;52.63
44697;BME280;57264;47.480;19.354;2024-03-25T10:34:25;98128.66;;;9.26;54.41
44697;BME280;57264;47.480;19.354;2024-03-25T10:36:51;98130.53;;;9.41;55.84
44697;BME280;57264;47.480;19.354;2024-03-25T10:39:21;98123.03;;;9.54;54.25
44697;BME280;57264;47.480;19.354;2024-03-25T10:41:48;98116.22;;;9.70;54.62
44697;BME280;57264;47.480;19.354;2024-03-25T10:44:15;98122.19;;;9.90;53.65
44697;BME280;57264;47.480;19.354;2024-03-25T10:46:40;98119.38;;;10.30;50.95
44697;BME280;57264;47.480;19.354;2024-03-25T10:49:09;98114.00;;;10.51;50.47
44697;BME280;57264;47.480;19.354;2024-03-25T10:51:37;98110.81;;;10.79;50.11
44697;BME280;57264;47.480;19.354;2024-03-25T10:54:04;98112.53;;;10.96;49.16
44697;BME280;57264;47.480;19.354;2024-03-25T10:56:29;98107.38;;;11.27;48.53
44697;BME280;57264;47.480;19.354;2024-03-25T10:58:55;98109.28;;;11.55;45.41
44697;BME280;57264;47.480;19.354;2024-03-25T11:01:21;98100.31;;;11.77;45.83
44697;BME280;57264;47.480;19.354;2024-03-25T11:03:47;98100.59;;;11.88;45.00
44697;BME280;57264;47.480;19.354;2024-03-25T11:06:13;98094.88;;;11.66;46.67
44697;BME280;57264;47.480;19.354;2024-03-25T11:08:39;98090.34;;;11.38;45.80
44697;BME280;57264;47.480;19.354;2024-03-25T11:11:06;98097.63;;;10.99;45.41
44697;BME280;57264;47.480;19.354;2024-03-25T11:13:32;98096.22;;;10.43;47.28
44697;BME280;57264;47.480;19.354;2024-03-25T11:15:57;98102.47;;;10.22;49.83
44697;BME280;57264;47.480;19.354;2024-03-25T11:18:25;98103.69;;;10.32;49.54
44697;BME280;57264;47.480;19.354;2024-03-25T11:23:43;98098.69;;;10.95;46.37
44697;BME280;57264;47.480;19.354;2024-03-25T11:26:24;98096.38;;;11.06;45.28
44697;BME280;57264;47.480;19.354;2024-03-25T11:28:52;98093.50;;;10.95;45.44
44697;BME280;57264;47.480;19.354;2024-03-25T11:31:20;98096.78;;;10.99;45.78
44697;BME280;57264;47.480;19.354;2024-03-25T11:33:47;98101.69;;;11.21;46.23
44697;BME280;57264;47.480;19.354;2024-03-25T11:36:12;98109.47;;;11.05;46.10
44697;BME280;57264;47.480;19.354;2024-03-25T11:38:38;98111.50;;;10.32;47.21
44697;BME280;57264;47.480;19.354;2024-03-25T11:41:07;98149.88;;;9.34;55.09
44697;BME280;57264;47.480;19.354;2024-03-25T11:43:32;98155.78;;;8.59;58.30
44697;BME280;57264;47.480;19.354;2024-03-25T11:45:58;98141.34;;;8.53;57.35
44697;BME280;57264;47.480;19.354;2024-03-25T11:48:23;98139.28;;;8.61;55.37
44697;BME280;57264;47.480;19.354;2024-03-25T11:50:48;98138.75;;;8.74;54.64
44697;BME280;57264;47.480;19.354;2024-03-25T11:53:14;98136.91;;;8.96;56.61
44697;BME280;57264;47.480;19.354;2024-03-25T11:55:40;98138.53;;;8.99;57.70
44697;BME280;57264;47.480;19.354;2024-03-25T11:58:05;98131.69;;;9.35;57.00
44697;BME280;57264;47.480;19.354;2024-03-25T12:00:31;98121.34;;;9.72;55.71
44697;BME280;57264;47.480;19.354;2024-03-25T12:02:56;98131.22;;;10.17;55.90
44697;BME280;57264;47.480;19.354;2024-03-25T12:05:22;98128.34;;;10.41;53.32
44697;BME280;57264;47.480;19.354;2024-03-25T12:07:47;98142.50;;;10.35;53.64
44697;BME280;57264;47.480;19.354;2024-03-25T12:10:15;98153.03;;;9.96;55.86
44697;BME280;57264;47.480;19.354;2024-03-25T12:12:58;98135.66;;;9.24;56.83
44697;BME280;57264;47.480;19.354;2024-03-25T12:15:24;98128.22;;;8.97;57.02
44697;BME280;57264;47.480;19.354;2024-03-25T12:17:50;98134.31;;;8.96;54.23
44697;BME280;57264;47.480;19.354;2024-03-25T12:20:16;98136.22;;;9.11;55.60
44697;BME280;57264;47.480;19.354;2024-03-25T12:22:43;98132.66;;;9.33;57.56
44697;BME280;57264;47.480;19.354;2024-03-25T12:25:08;98118.44;;;9.78;56.55
44697;BME280;57264;47.480;19.354;2024-03-25T12:27:37;98120.50;;;10.25;56.03
44697;BME280;57264;47.480;19.354;2024-03-25T12:30:04;98119.25;;;10.67;54.76
44697;BME280;57264;47.480;19.354;2024-03-25T12:32:32;98109.22;;;10.76;52.14
44697;BME280;57264;47.480;19.354;2024-03-25T12:35:01;98123.38;;;10.71;52.31
44697;BME280;57264;47.480;19.354;2024-03-25T12:37:26;98113.91;;;10.52;50.79
44697;BME280;57264;47.480;19.354;2024-03-25T12:39:51;98110.41;;;10.19;51.38
44697;BME280;57264;47.480;19.354;2024-03-25T12:42:17;98113.97;;;10.16;52.48
44697;BME280;57264;47.480;19.354;2024-03-25T12:44:42;98119.59;;;10.26;52.98
44697;BME280;57264;47.480;19.354;2024-03-25T12:47:08;98132.75;;;10.04;54.44
44697;BME280;57264;47.480;19.354;2024-03-25T12:49:33;98153.66;;;9.65;55.40
44697;BME280;57264;47.480;19.354;2024-03-25T12:51:58;98153.47;;;9.50;58.46
44697;BME280;57264;47.480;19.354;2024-03-25T12:54:24;98155.63;;;9.41;57.81
44697;BME280;57264;47.480;19.354;2024-03-25T12:56:49;98151.97;;;9.26;57.50
44697;BME280;57264;47.480;19.354;2024-03-25T12:59:14;98158.16;;;9.23;57.77